createdAt,value
2022-07-27T00:02:48.431Z,99.90
2022-07-27T00:06:54.807Z,99.90
2022-07-27T00:10:59.283Z,99.90
2022-07-27T00:15:02.591Z,99.90
2022-07-27T00:19:09.174Z,99.90
2022-07-27T00:23:20.370Z,99.90
2022-07-27T00:27:23.682Z,99.90
2022-07-27T00:31:27.055Z,99.90
2022-07-27T00:35:31.920Z,99.90
2022-07-27T00:39:35.234Z,99.90
2022-07-27T00:43:54.246Z,99.90
2022-07-27T00:47:57.587Z,99.90
2022-07-27T00:52:02.325Z,99.90
2022-07-27T00:56:06.190Z,99.90
2022-07-27T01:00:11.043Z,99.90
2022-07-27T01:04:14.401Z,99.90
2022-07-27T01:08:19.184Z,99.90
2022-07-27T01:12:32.556Z,99.90
2022-07-27T01:16:36.065Z,99.90
2022-07-27T01:20:40.806Z,99.90
2022-07-27T01:24:45.543Z,99.90
2022-07-27T01:28:49.322Z,99.90
2022-07-27T01:32:52.755Z,99.90
2022-07-27T01:36:56.372Z,99.90
2022-07-27T01:41:01.084Z,99.90
2022-07-27T01:45:04.952Z,99.90
2022-07-27T01:49:08.896Z,99.90
2022-07-27T01:53:12.588Z,99.90
2022-07-27T01:57:17.229Z,99.90
2022-07-27T02:01:20.537Z,99.90
2022-07-27T02:05:24.148Z,99.90
2022-07-27T02:09:27.507Z,99.90
2022-07-27T02:13:32.273Z,99.90
2022-07-27T02:17:36.334Z,99.90
2022-07-27T02:21:39.613Z,99.90
2022-07-27T02:25:42.902Z,99.90
2022-07-27T02:29:47.552Z,99.90
2022-07-27T02:33:50.883Z,99.90
2022-07-27T02:37:54.191Z,99.90
2022-07-27T02:41:57.617Z,99.90
2022-07-27T02:46:02.291Z,99.90
2022-07-27T02:50:06.991Z,99.90
2022-07-27T02:54:10.538Z,99.90
2022-07-27T02:58:13.895Z,99.90
2022-07-27T03:02:18.615Z,99.90
2022-07-27T03:06:21.931Z,99.90
2022-07-27T03:10:25.219Z,99.90
2022-07-27T03:14:28.575Z,99.90
2022-07-27T03:18:33.399Z,99.90
2022-07-27T03:22:36.742Z,99.90
2022-07-27T03:26:40.153Z,99.90
2022-07-27T03:30:44.054Z,99.90
2022-07-27T03:34:48.920Z,99.90
2022-07-27T03:38:52.604Z,99.90
2022-07-27T03:42:56.093Z,99.90
2022-07-27T03:46:59.388Z,99.90
2022-07-27T03:51:04.183Z,99.90
2022-07-27T03:55:08.690Z,99.90
2022-07-27T03:59:12.313Z,99.90
2022-07-27T04:03:16.116Z,99.90
2022-07-27T04:07:21.098Z,99.90
2022-07-27T04:11:24.396Z,99.90
2022-07-27T04:15:32.362Z,99.90
2022-07-27T04:19:35.615Z,99.90
2022-07-27T04:23:40.327Z,99.90
2022-07-27T04:27:43.665Z,99.90
2022-07-27T04:31:46.960Z,99.90
2022-07-27T04:35:50.256Z,99.90
2022-07-27T04:39:58.091Z,99.90
2022-07-27T04:44:01.589Z,99.90
2022-07-27T04:48:07.635Z,99.90
2022-07-27T04:52:10.990Z,99.90
2022-07-27T04:56:15.979Z,99.90
2022-07-27T05:00:22.044Z,99.90
2022-07-27T05:04:25.741Z,99.90
2022-07-27T05:08:30.628Z,99.90
2022-07-27T05:12:35.434Z,99.90
2022-07-27T05:16:42.295Z,99.90
2022-07-27T05:20:45.749Z,99.90
2022-07-27T05:24:49.190Z,99.90
2022-07-27T05:28:53.877Z,99.90
2022-07-27T05:32:57.163Z,99.90
2022-07-27T05:37:00.733Z,99.90
2022-07-27T05:41:04.020Z,99.90
2022-07-27T05:45:10.312Z,99.90
2022-07-27T05:49:13.918Z,99.90
2022-07-27T05:53:17.715Z,99.90
2022-07-27T05:57:21.096Z,99.90
2022-07-27T06:01:25.919Z,99.90
2022-07-27T06:05:30.159Z,99.90
2022-07-27T06:09:33.480Z,99.90
2022-07-27T06:13:37.290Z,99.90
2022-07-27T06:17:49.247Z,99.90
2022-07-27T06:21:53.967Z,99.90
2022-07-27T06:25:58.027Z,99.90
2022-07-27T06:30:01.329Z,99.90
2022-07-27T06:34:06.818Z,99.90
2022-07-27T06:38:15.262Z,99.90
2022-07-27T06:42:18.537Z,99.90
2022-07-27T06:46:22.062Z,99.90
2022-07-27T06:50:27.071Z,99.90
2022-07-27T06:54:33.009Z,99.90
2022-07-27T06:58:37.760Z,99.90
2022-07-27T07:02:52.455Z,99.90
2022-07-27T07:07:05.238Z,99.90
2022-07-27T07:11:14.122Z,99.90
2022-07-27T07:15:18.281Z,99.90
2022-07-27T07:19:21.772Z,99.30
2022-07-27T07:23:26.637Z,98.80
2022-07-27T07:27:30.192Z,99.90
2022-07-27T07:31:33.833Z,99.90
2022-07-27T07:35:37.193Z,99.90
2022-07-27T07:40:18.804Z,99.90
2022-07-27T07:44:26.392Z,99.90
2022-07-27T07:48:34.811Z,99.90
2022-07-27T07:52:38.386Z,99.90
2022-07-27T07:56:43.115Z,99.00
2022-07-27T08:00:46.715Z,98.00
2022-07-27T08:04:50.129Z,97.10
2022-07-27T08:08:53.567Z,95.90
2022-07-27T08:12:59.121Z,95.20
2022-07-27T08:17:02.717Z,95.00
2022-07-27T08:21:06.103Z,94.10
2022-07-27T08:25:10.346Z,95.00
2022-07-27T08:29:16.365Z,95.50
2022-07-27T08:33:20.434Z,95.00
2022-07-27T08:37:23.761Z,95.70
2022-07-27T08:41:28.535Z,96.00
2022-07-27T08:45:33.728Z,96.10
2022-07-27T08:49:43.671Z,97.20
2022-07-27T08:53:53.187Z,97.00
2022-07-27T08:58:02.740Z,97.20
2022-07-27T09:02:12.160Z,97.30
2022-07-27T09:06:35.648Z,96.80
2022-07-27T09:10:39.780Z,97.80
2022-07-27T09:14:43.450Z,97.50
2022-07-27T09:18:49.177Z,97.10
2022-07-27T09:22:53.695Z,97.10
2022-07-27T09:27:04.302Z,97.90
2022-07-27T09:31:08.904Z,98.50
2022-07-27T09:35:22.131Z,97.30
2022-07-27T09:39:27.122Z,96.00
2022-07-27T09:44:20.199Z,95.70
2022-07-27T09:47:54.338Z,95.60
2022-07-27T09:52:01.302Z,94.70
2022-07-27T09:56:07.768Z,93.20
2022-07-27T10:00:13.905Z,91.20
2022-07-27T10:04:18.483Z,90.20
2022-07-27T10:08:23.803Z,90.10
2022-07-27T10:12:30.058Z,90.90
2022-07-27T10:16:35.673Z,90.20
2022-07-27T10:20:47.697Z,89.60
2022-07-27T10:25:00.681Z,89.70
2022-07-27T10:29:06.388Z,91.20
2022-07-27T10:33:17.420Z,91.10
2022-07-27T10:37:27.054Z,92.40
2022-07-27T10:41:34.233Z,93.20
2022-07-27T10:45:50.286Z,93.30
2022-07-27T10:50:29.950Z,93.60
2022-07-27T10:54:38.646Z,91.50
2022-07-27T10:58:52.759Z,90.40
2022-07-27T11:02:58.205Z,91.00
2022-07-27T11:11:28.104Z,92.10
2022-07-27T11:15:33.715Z,93.60
2022-07-27T11:19:37.557Z,93.50
2022-07-27T11:23:51.237Z,93.40
2022-07-27T11:27:55.597Z,94.40
2022-07-27T11:32:01.991Z,93.80
2022-07-27T11:36:08.075Z,93.60
2022-07-27T11:40:42.274Z,94.50
2022-07-27T11:44:39.993Z,95.20
2022-07-27T11:49:07.278Z,95.00
2022-07-27T11:53:11.799Z,94.80
2022-07-27T11:57:18.823Z,95.40
2022-07-27T12:01:28.971Z,95.30
2022-07-27T12:05:33.892Z,95.20
2022-07-27T12:09:39.715Z,95.70
2022-07-27T12:13:43.175Z,96.70
2022-07-27T12:17:47.450Z,95.40
2022-07-27T12:21:57.573Z,95.80
2022-07-27T12:26:19.075Z,95.00
2022-07-27T12:30:31.579Z,94.10
2022-07-27T12:34:37.221Z,95.00
2022-07-27T12:38:50.703Z,94.70
2022-07-27T12:43:00.694Z,94.80
2022-07-27T12:47:22.762Z,94.50
2022-07-27T12:51:30.548Z,94.20
2022-07-27T12:55:36.022Z,94.40
2022-07-27T12:59:39.763Z,94.30
2022-07-27T13:03:43.339Z,95.30
2022-07-27T13:07:47.881Z,96.00
2022-07-27T13:11:58.312Z,95.90
2022-07-27T13:16:03.638Z,96.20
2022-07-27T13:20:09.958Z,96.10
2022-07-27T13:24:13.296Z,96.30
2022-07-27T13:28:18.025Z,97.10
2022-07-27T13:32:24.570Z,96.90
2022-07-27T13:36:28.836Z,97.20
2022-07-27T13:40:32.209Z,96.90
2022-07-27T13:45:02.249Z,97.00
2022-07-27T13:49:00.634Z,95.90
2022-07-27T13:53:03.999Z,97.40
2022-07-27T13:57:07.290Z,97.60
2022-07-27T14:01:12.596Z,96.00
2022-07-27T14:05:20.143Z,94.50
2022-07-27T14:09:43.810Z,94.40
2022-07-27T14:13:47.246Z,94.20
2022-07-27T14:17:51.933Z,93.70
2022-07-27T14:21:55.292Z,94.60
2022-07-27T14:26:00.055Z,93.90
2022-07-27T14:30:03.425Z,93.20
2022-07-27T14:34:08.105Z,93.20
2022-07-27T14:38:11.738Z,93.20
2022-07-27T14:42:15.061Z,93.60
2022-07-27T14:46:18.420Z,93.20
2022-07-27T14:50:23.358Z,92.90
2022-07-27T14:54:26.677Z,94.00
2022-07-27T14:58:30.060Z,94.50
2022-07-27T15:02:34.795Z,94.30
2022-07-27T15:06:39.584Z,94.30
2022-07-27T15:10:44.151Z,93.80
2022-07-27T15:14:47.443Z,95.00
2022-07-27T15:18:50.734Z,95.90
2022-07-27T15:22:55.507Z,96.40
2022-07-27T15:26:58.851Z,97.60
2022-07-27T15:31:02.545Z,96.40
2022-07-27T15:35:06.531Z,97.70
2022-07-27T15:39:11.491Z,97.20
2022-07-27T15:43:17.058Z,97.00
2022-07-27T15:47:20.426Z,98.20
2022-07-27T15:51:23.752Z,99.00
2022-07-27T15:55:28.552Z,99.90
2022-07-27T15:59:31.865Z,99.90
2022-07-27T16:03:35.527Z,99.90
2022-07-27T16:07:41.693Z,99.90
2022-07-27T16:11:47.142Z,99.90
2022-07-27T16:16:08.039Z,99.90
2022-07-27T16:20:13.664Z,99.90
2022-07-27T16:24:17.409Z,99.90
2022-07-27T16:28:22.806Z,99.90
2022-07-27T16:32:26.550Z,99.90
2022-07-27T16:36:32.956Z,99.90
2022-07-27T16:40:39.438Z,99.90
2022-07-27T16:44:44.520Z,99.90
2022-07-27T16:48:48.333Z,99.90
2022-07-27T16:52:51.819Z,99.90
2022-07-27T16:56:56.286Z,99.90
2022-07-27T17:01:01.956Z,99.90
2022-07-27T17:05:06.776Z,99.90
2022-07-27T17:09:11.170Z,99.90
2022-07-27T17:13:14.847Z,99.90
2022-07-27T17:17:20.694Z,99.90
2022-07-27T17:21:24.412Z,99.90
2022-07-27T17:25:31.130Z,99.90
2022-07-27T17:29:34.981Z,99.90
2022-07-27T17:33:40.619Z,99.90
2022-07-27T17:38:04.999Z,99.90
2022-07-27T17:42:09.804Z,99.90
2022-07-27T17:46:14.241Z,99.90
2022-07-27T17:50:19.296Z,99.90
2022-07-27T17:54:37.921Z,99.90
2022-07-27T17:58:43.050Z,99.90
2022-07-27T18:02:46.638Z,99.90
2022-07-27T18:06:52.340Z,99.90
2022-07-27T18:10:55.760Z,99.90
2022-07-27T18:15:18.363Z,99.90
2022-07-27T18:19:22.957Z,99.90
2022-07-27T18:23:28.530Z,99.90
2022-07-27T18:27:32.864Z,99.90
2022-07-27T18:31:37.978Z,99.90
2022-07-27T18:35:41.669Z,99.90
2022-07-27T18:39:50.574Z,99.90
2022-07-27T18:43:54.020Z,99.90
2022-07-27T18:47:57.328Z,99.90
2022-07-27T18:52:03.086Z,99.90
2022-07-27T18:56:13.062Z,99.90
2022-07-27T19:00:17.023Z,99.90
2022-07-27T19:04:26.885Z,99.90
2022-07-27T19:08:32.116Z,99.90
2022-07-27T19:12:37.443Z,99.90
2022-07-27T19:16:40.867Z,99.90
2022-07-27T19:20:46.042Z,99.90
2022-07-27T19:24:54.621Z,99.90
2022-07-27T19:28:59.745Z,99.90
2022-07-27T19:33:04.485Z,99.90
2022-07-27T19:37:08.199Z,99.90
2022-07-27T19:41:13.385Z,99.90
2022-07-27T19:45:28.541Z,99.90
2022-07-27T19:49:36.104Z,99.90
2022-07-27T19:53:44.509Z,99.90
2022-07-27T19:57:48.088Z,99.90
2022-07-27T20:01:52.985Z,99.90
2022-07-27T20:05:57.308Z,99.90
2022-07-27T20:10:03.168Z,99.90
2022-07-27T20:14:06.767Z,99.90
2022-07-27T20:18:13.920Z,99.90
2022-07-27T20:22:17.803Z,99.90
2022-07-27T20:26:24.586Z,99.90
2022-07-27T20:30:28.386Z,99.90
2022-07-27T20:34:33.092Z,99.90
2022-07-27T20:38:36.417Z,99.90
2022-07-27T20:42:42.870Z,99.90
2022-07-27T20:46:46.268Z,99.90
2022-07-27T20:50:51.369Z,99.90
2022-07-27T20:54:54.865Z,99.90
2022-07-27T20:58:58.626Z,99.90
2022-07-27T21:03:02.038Z,99.90
2022-07-27T21:07:06.770Z,99.90
2022-07-27T21:11:10.195Z,99.90
2022-07-27T21:15:13.762Z,99.90
2022-07-27T21:19:19.336Z,99.90
2022-07-27T21:23:41.355Z,99.90
2022-07-27T21:27:44.735Z,99.90
2022-07-27T21:31:50.628Z,99.90
2022-07-27T21:35:53.956Z,99.90
2022-07-27T21:39:59.747Z,99.90
2022-07-27T21:44:03.112Z,99.90
2022-07-27T21:48:07.196Z,99.90
2022-07-27T21:52:11.366Z,99.90
2022-07-27T21:56:16.726Z,99.90
2022-07-27T22:00:24.010Z,99.90
2022-07-27T22:04:28.164Z,99.90
2022-07-27T22:08:31.629Z,99.90
2022-07-27T22:12:36.494Z,99.90
2022-07-27T22:16:39.919Z,99.90
2022-07-27T22:20:43.335Z,99.90
2022-07-27T22:24:46.659Z,99.90
2022-07-27T22:28:51.412Z,99.90
2022-07-27T22:32:54.973Z,99.90
2022-07-27T22:36:58.302Z,99.90
2022-07-27T22:41:01.794Z,99.90
2022-07-27T22:45:08.008Z,99.90
2022-07-27T22:49:11.518Z,99.90
2022-07-27T22:53:16.386Z,99.90
2022-07-27T22:57:19.713Z,99.90
2022-07-27T23:01:45.624Z,99.90
2022-07-27T23:05:47.960Z,99.90
2022-07-27T23:09:51.372Z,99.90
2022-07-27T23:13:54.709Z,99.90
2022-07-27T23:17:59.530Z,99.90
2022-07-27T23:22:02.907Z,99.90
2022-07-27T23:26:06.219Z,99.90
2022-07-27T23:30:10.982Z,99.90
2022-07-27T23:34:15.826Z,99.90
2022-07-27T23:38:19.395Z,99.90
2022-07-27T23:42:22.733Z,99.90
2022-07-27T23:46:26.146Z,99.90
2022-07-27T23:50:30.955Z,99.90
2022-07-27T23:54:34.222Z,99.90
2022-07-27T23:58:37.567Z,99.90
